createdAt,value
2022-09-16T00:00:13.845Z,93.18
2022-09-16T00:02:43.271Z,109.47
2022-09-16T00:05:12.564Z,112.13
2022-09-16T00:07:41.843Z,110.75
2022-09-16T00:10:11.987Z,107.32
2022-09-16T00:12:41.898Z,123.25
2022-09-16T00:15:12.969Z,108.55
2022-09-16T00:17:42.226Z,100.32
2022-09-16T00:20:12.118Z,101.00
2022-09-16T00:22:41.452Z,86.90
2022-09-16T00:25:11.356Z,85.30
2022-09-16T00:27:40.548Z,104.45
2022-09-16T00:30:12.797Z,84.35
2022-09-16T00:32:42.167Z,118.72
2022-09-16T00:35:12.747Z,92.07
2022-09-16T00:37:42.025Z,93.63
2022-09-16T00:40:12.343Z,94.00
2022-09-16T00:42:42.224Z,89.45
2022-09-16T00:45:19.352Z,102.40
2022-09-16T00:47:52.851Z,89.63
2022-09-16T00:50:29.251Z,101.75
2022-09-16T00:52:59.275Z,78.70
2022-09-16T00:55:33.594Z,90.50
2022-09-16T00:58:11.721Z,111.40
2022-09-16T01:00:43.014Z,98.63
2022-09-16T01:03:12.329Z,78.20
2022-09-16T01:05:41.627Z,97.15
2022-09-16T01:08:10.900Z,101.75
2022-09-16T01:10:43.683Z,90.05
2022-09-16T01:13:15.958Z,73.30
2022-09-16T01:15:56.581Z,75.75
2022-09-16T01:18:32.936Z,67.72
2022-09-16T01:21:19.446Z,64.90
2022-09-16T01:24:27.154Z,81.50
2022-09-16T01:27:46.193Z,75.63
2022-09-16T01:30:57.110Z,58.50
2022-09-16T01:33:37.992Z,52.25
2022-09-16T01:36:32.574Z,76.85
2022-09-16T01:39:19.765Z,39.67
2022-09-16T01:42:09.522Z,42.88
2022-09-16T01:44:46.173Z,28.60
2022-09-16T01:47:23.988Z,34.67
2022-09-16T01:50:04.342Z,33.75
2022-09-16T01:52:46.962Z,38.92
2022-09-16T01:55:24.154Z,28.50
2022-09-16T01:57:57.288Z,32.25
2022-09-16T02:00:26.802Z,26.60
2022-09-16T02:03:03.573Z,23.75
2022-09-16T02:05:38.548Z,27.63
2022-09-16T02:08:14.568Z,22.58
2022-09-16T02:10:50.230Z,31.30
2022-09-16T02:13:23.546Z,30.35
2022-09-16T02:15:57.505Z,23.70
2022-09-16T02:18:34.765Z,21.05
2022-09-16T02:21:10.700Z,29.38
2022-09-16T02:23:47.053Z,24.55
2022-09-16T02:26:22.888Z,24.33
2022-09-16T02:28:54.723Z,26.85
2022-09-16T02:31:29.637Z,28.67
2022-09-16T02:34:05.344Z,28.13
2022-09-16T02:36:37.389Z,28.08
2022-09-16T02:39:10.889Z,36.35
2022-09-16T02:41:41.765Z,37.92
2022-09-16T02:44:12.216Z,39.15
2022-09-16T02:46:51.240Z,42.28
2022-09-16T02:49:29.445Z,31.98
2022-09-16T02:52:05.317Z,32.80
2022-09-16T02:54:40.776Z,33.78
2022-09-16T02:57:10.655Z,34.22
2022-09-16T02:59:40.724Z,32.30
2022-09-16T03:02:10.309Z,34.65
2022-09-16T03:04:41.552Z,46.67
2022-09-16T03:07:12.959Z,37.75
2022-09-16T03:09:45.446Z,40.33
2022-09-16T03:12:52.168Z,36.28
2022-09-16T03:15:51.594Z,40.25
2022-09-16T03:18:52.392Z,43.20
2022-09-16T03:21:33.387Z,43.47
2022-09-16T03:24:12.159Z,51.65
2022-09-16T03:26:49.733Z,40.83
2022-09-16T03:29:26.739Z,41.30
2022-09-16T03:32:04.255Z,60.85
2022-09-16T03:34:39.948Z,41.38
2022-09-16T03:37:16.790Z,44.25
2022-09-16T03:39:53.772Z,48.30
2022-09-16T03:42:23.456Z,44.80
2022-09-16T03:44:52.753Z,45.50
2022-09-16T03:47:22.010Z,45.40
2022-09-16T03:49:51.885Z,44.55
2022-09-16T03:52:22.423Z,41.45
2022-09-16T03:54:51.566Z,41.92
2022-09-16T03:57:20.754Z,44.80
2022-09-16T03:59:49.918Z,41.78
2022-09-16T04:02:19.021Z,44.30
2022-09-16T04:04:48.259Z,45.45
2022-09-16T04:07:17.464Z,44.83
2022-09-16T04:09:48.001Z,46.58
2022-09-16T04:12:17.208Z,42.72
2022-09-16T04:14:46.407Z,47.60
2022-09-16T04:17:15.539Z,43.60
2022-09-16T04:19:44.843Z,45.42
2022-09-16T04:22:14.031Z,45.17
2022-09-16T04:24:43.227Z,44.92
2022-09-16T04:27:13.912Z,43.30
2022-09-16T04:29:43.091Z,42.58
2022-09-16T04:32:12.316Z,46.17
2022-09-16T04:34:41.932Z,47.10
2022-09-16T04:37:11.096Z,43.15
2022-09-16T04:39:40.223Z,43.72
2022-09-16T04:42:12.472Z,44.58
2022-09-16T04:44:43.006Z,45.00
2022-09-16T04:47:12.195Z,43.85
2022-09-16T04:49:41.390Z,46.40
2022-09-16T04:52:11.131Z,48.75
2022-09-16T04:54:40.290Z,41.63
2022-09-16T04:57:09.740Z,47.75
2022-09-16T04:59:38.925Z,44.22
2022-09-16T05:02:09.468Z,38.45
2022-09-16T05:04:38.636Z,39.65
2022-09-16T05:07:09.141Z,39.90
2022-09-16T05:09:38.328Z,44.25
2022-09-16T05:12:08.986Z,42.50
2022-09-16T05:14:38.438Z,45.63
2022-09-16T05:17:09.008Z,40.08
2022-09-16T05:19:38.102Z,46.47
2022-09-16T05:22:07.455Z,45.45
2022-09-16T05:24:37.401Z,41.78
2022-09-16T05:27:07.065Z,40.38
2022-09-16T05:29:36.259Z,39.22
2022-09-16T05:32:05.554Z,40.28
2022-09-16T05:34:37.538Z,43.40
2022-09-16T05:37:06.756Z,41.90
2022-09-16T05:39:36.086Z,43.92
2022-09-16T05:42:05.514Z,48.95
2022-09-16T05:44:34.626Z,48.75
2022-09-16T05:47:04.331Z,51.92
2022-09-16T05:49:33.471Z,48.03
2022-09-16T05:52:04.399Z,43.08
2022-09-16T05:54:33.639Z,50.58
2022-09-16T05:57:07.205Z,47.33
2022-09-16T05:59:36.806Z,58.38
2022-09-16T06:02:06.065Z,48.13
2022-09-16T06:04:35.766Z,55.58
2022-09-16T06:07:07.345Z,43.70
2022-09-16T06:09:36.976Z,47.55
2022-09-16T06:12:06.804Z,53.15
2022-09-16T06:14:35.879Z,42.33
2022-09-16T06:17:05.516Z,51.10
2022-09-16T06:19:34.653Z,48.05
2022-09-16T06:22:05.246Z,53.10
2022-09-16T06:24:34.402Z,56.10
2022-09-16T06:27:03.751Z,74.00
2022-09-16T06:29:33.029Z,53.67
2022-09-16T06:32:02.560Z,50.17
2022-09-16T06:34:32.033Z,48.60
2022-09-16T06:37:01.417Z,50.58
2022-09-16T06:39:36.478Z,49.78
2022-09-16T06:42:08.199Z,52.40
2022-09-16T06:44:44.439Z,50.00
2022-09-16T06:47:13.867Z,50.95
2022-09-16T06:49:43.294Z,68.20
2022-09-16T06:52:12.470Z,61.83
2022-09-16T06:54:43.199Z,70.15
2022-09-16T06:57:14.921Z,40.50
2022-09-16T06:59:44.045Z,51.40
2022-09-16T07:02:13.671Z,23.17
2022-09-16T07:04:45.253Z,36.30
2022-09-16T07:07:15.318Z,40.80
2022-09-16T07:09:47.308Z,80.07
2022-09-16T07:12:19.623Z,68.93
2022-09-16T07:14:48.977Z,78.88
2022-09-16T07:17:18.496Z,75.60
2022-09-16T07:19:49.247Z,79.28
2022-09-16T07:22:18.391Z,67.93
2022-09-16T07:24:48.916Z,58.17
2022-09-16T07:27:18.046Z,52.22
2022-09-16T07:29:47.179Z,95.55
2022-09-16T07:32:16.303Z,54.00
2022-09-16T07:34:45.408Z,49.88
2022-09-16T07:37:14.945Z,45.97
2022-09-16T07:39:44.399Z,66.25
2022-09-16T07:42:15.295Z,57.17
2022-09-16T07:44:44.534Z,89.25
2022-09-16T07:47:15.296Z,88.32
2022-09-16T07:49:45.926Z,104.13
2022-09-16T07:52:16.690Z,125.10
2022-09-16T07:54:46.055Z,153.63
2022-09-16T07:57:17.489Z,138.90
2022-09-16T07:59:46.681Z,131.90
2022-09-16T08:02:15.931Z,131.15
2022-09-16T08:04:45.450Z,137.55
2022-09-16T08:07:14.561Z,126.15
2022-09-16T08:09:48.558Z,146.82
2022-09-16T08:12:21.138Z,142.73
2022-09-16T08:14:50.277Z,124.47
2022-09-16T08:17:19.510Z,144.75
2022-09-16T08:19:48.767Z,183.18
2022-09-16T08:22:17.923Z,148.20
2022-09-16T08:24:47.054Z,158.20
2022-09-16T08:27:16.229Z,164.35
2022-09-16T08:29:47.131Z,189.50
2022-09-16T08:32:16.277Z,122.13
2022-09-16T08:34:45.463Z,169.93
2022-09-16T08:37:14.696Z,159.68
2022-09-16T08:39:43.770Z,173.35
2022-09-16T08:42:47.879Z,135.30
2022-09-16T08:45:28.827Z,135.50
2022-09-16T08:48:15.670Z,146.13
2022-09-16T08:50:50.249Z,139.63
2022-09-16T08:53:28.634Z,187.43
2022-09-16T08:55:58.576Z,162.55
2022-09-16T08:58:32.686Z,180.43
2022-09-16T09:01:17.216Z,157.77
2022-09-16T09:03:50.240Z,154.55
2022-09-16T09:06:40.162Z,181.43
2022-09-16T09:09:27.907Z,151.38
2022-09-16T09:12:08.006Z,169.38
2022-09-16T09:15:01.005Z,120.10
2022-09-16T09:17:48.549Z,162.88
2022-09-16T09:20:31.253Z,238.40
2022-09-16T09:23:23.965Z,148.90
2022-09-16T09:25:59.833Z,162.73
2022-09-16T09:29:04.785Z,166.45
2022-09-16T09:31:45.095Z,119.40
2022-09-16T09:34:41.012Z,161.25
2022-09-16T09:37:39.308Z,188.77
2022-09-16T09:40:17.016Z,127.78
2022-09-16T09:42:51.977Z,165.63
2022-09-16T09:45:27.570Z,106.90
2022-09-16T09:48:04.913Z,174.68
2022-09-16T09:50:43.741Z,153.00
2022-09-16T09:53:20.096Z,113.88
2022-09-16T09:55:52.152Z,123.63
2022-09-16T09:58:32.181Z,155.93
2022-09-16T10:01:01.510Z,103.45
2022-09-16T10:03:32.069Z,117.93
2022-09-16T10:06:02.876Z,113.50
2022-09-16T10:08:42.625Z,95.93
2022-09-16T10:11:20.141Z,118.78
2022-09-16T10:13:51.554Z,120.57
2022-09-16T10:16:23.620Z,119.90
2022-09-16T10:19:02.859Z,147.00
2022-09-16T10:21:47.123Z,114.70
2022-09-16T10:24:38.992Z,106.38
2022-09-16T10:27:22.994Z,133.27
2022-09-16T10:30:13.204Z,125.50
2022-09-16T10:32:51.701Z,154.52
2022-09-16T10:35:24.420Z,98.75
2022-09-16T10:37:58.288Z,105.88
2022-09-16T10:40:28.439Z,155.35
2022-09-16T10:43:03.402Z,108.80
2022-09-16T10:45:36.775Z,91.75
2022-09-16T10:48:14.514Z,108.43
2022-09-16T10:50:55.685Z,76.80
2022-09-16T10:53:32.637Z,175.50
2022-09-16T10:56:05.808Z,68.47
2022-09-16T10:58:35.133Z,141.25
2022-09-16T11:01:29.126Z,111.55
2022-09-16T11:04:25.471Z,95.13
2022-09-16T11:07:11.392Z,96.10
2022-09-16T11:09:56.245Z,104.13
2022-09-16T11:12:54.335Z,120.20
2022-09-16T11:15:37.733Z,120.35
2022-09-16T11:18:34.410Z,81.45
2022-09-16T11:21:31.893Z,154.30
2022-09-16T11:24:43.582Z,151.13
2022-09-16T11:27:25.422Z,91.40
2022-09-16T11:30:05.340Z,81.90
2022-09-16T11:32:56.568Z,114.25
2022-09-16T11:36:00.986Z,88.65
2022-09-16T11:41:23.430Z,57.00
2022-09-16T11:44:24.058Z,92.75
2022-09-16T11:47:09.989Z,117.75
2022-09-16T11:49:58.454Z,97.30
2022-09-16T11:52:49.870Z,87.90
2022-09-16T11:55:35.901Z,79.10
2022-09-16T11:58:23.038Z,64.40
2022-09-16T12:00:57.337Z,71.13
2022-09-16T12:03:33.453Z,83.10
2022-09-16T12:06:11.292Z,92.07
2022-09-16T12:08:55.236Z,86.80
2022-09-16T12:11:33.239Z,96.00
2022-09-16T12:14:14.338Z,89.90
2022-09-16T12:16:50.630Z,82.30
2022-09-16T12:19:25.433Z,81.13
2022-09-16T12:22:01.175Z,149.25
2022-09-16T12:24:38.492Z,108.60
2022-09-16T12:27:20.240Z,133.60
2022-09-16T12:29:56.701Z,88.00
2022-09-16T12:32:39.001Z,57.95
2022-09-16T12:35:17.285Z,75.05
2022-09-16T12:37:50.439Z,88.90
2022-09-16T12:40:26.659Z,155.05
2022-09-16T12:43:40.306Z,119.43
2022-09-16T12:46:37.152Z,86.97
2022-09-16T12:50:02.209Z,77.90
2022-09-16T12:52:55.769Z,85.15
2022-09-16T12:55:44.706Z,75.20
2022-09-16T12:58:48.022Z,108.72
2022-09-16T13:01:25.229Z,102.00
2022-09-16T13:03:58.584Z,150.73
2022-09-16T13:06:31.781Z,98.60
2022-09-16T13:09:21.196Z,92.18
2022-09-16T13:14:50.371Z,116.97
2022-09-16T13:17:30.788Z,97.53
2022-09-16T13:20:08.729Z,89.57
2022-09-16T13:22:47.664Z,64.03
2022-09-16T13:25:25.165Z,78.28
2022-09-16T13:27:58.940Z,70.72
2022-09-16T13:30:37.526Z,67.32
2022-09-16T13:33:29.493Z,52.63
2022-09-16T13:36:33.220Z,75.60
2022-09-16T13:39:06.805Z,64.95
2022-09-16T13:41:38.955Z,50.38
2022-09-16T13:44:31.699Z,121.35
2022-09-16T13:47:40.417Z,64.00
2022-09-16T13:50:17.153Z,62.67
2022-09-16T13:52:46.408Z,54.83
2022-09-16T13:55:25.045Z,103.05
2022-09-16T13:58:06.480Z,61.88
2022-09-16T14:00:47.254Z,77.05
2022-09-16T14:03:47.873Z,62.67
2022-09-16T14:06:42.028Z,69.72
2022-09-16T14:09:29.202Z,51.78
2022-09-16T14:12:18.215Z,66.22
2022-09-16T14:14:48.340Z,60.90
2022-09-16T14:17:23.825Z,57.10
2022-09-16T14:19:58.560Z,82.13
2022-09-16T14:22:29.029Z,58.88
2022-09-16T14:25:06.508Z,79.30
2022-09-16T14:27:43.864Z,66.60
2022-09-16T14:30:18.092Z,79.95
2022-09-16T14:32:49.867Z,80.55
2022-09-16T14:35:24.244Z,124.40
2022-09-16T14:37:57.237Z,56.95
2022-09-16T14:40:28.485Z,70.18
2022-09-16T14:43:05.721Z,82.65
2022-09-16T14:45:38.428Z,69.00
2022-09-16T14:48:11.329Z,55.13
2022-09-16T14:50:45.492Z,50.63
2022-09-16T14:53:37.522Z,55.08
2022-09-16T14:58:38.676Z,40.80
2022-09-16T15:01:15.716Z,53.45
2022-09-16T15:03:49.970Z,71.95
2022-09-16T15:06:25.345Z,65.18
2022-09-16T15:08:59.884Z,56.30
2022-09-16T15:11:47.478Z,57.45
2022-09-16T15:14:20.087Z,75.53
2022-09-16T15:16:54.102Z,63.55
2022-09-16T15:19:27.289Z,52.58
2022-09-16T15:21:56.799Z,56.80
2022-09-16T15:24:31.295Z,64.15
2022-09-16T15:27:01.817Z,79.85
2022-09-16T15:29:35.555Z,88.68
2022-09-16T15:32:19.605Z,79.75
2022-09-16T15:34:49.831Z,89.30
2022-09-16T15:37:32.397Z,66.10
2022-09-16T15:40:25.414Z,64.45
2022-09-16T15:43:18.021Z,57.75
2022-09-16T15:46:01.483Z,65.18
2022-09-16T15:48:35.093Z,50.58
2022-09-16T15:51:09.365Z,45.17
2022-09-16T15:53:46.903Z,50.45
2022-09-16T15:56:26.839Z,45.17
2022-09-16T15:59:00.629Z,41.55
2022-09-16T16:01:50.978Z,62.15
2022-09-16T16:04:29.770Z,61.40
2022-09-16T16:07:01.178Z,33.85
2022-09-16T16:09:40.060Z,44.67
2022-09-16T16:12:12.982Z,46.47
2022-09-16T16:14:42.902Z,44.75
2022-09-16T16:17:16.553Z,38.08
2022-09-16T16:19:47.651Z,38.00
2022-09-16T16:22:17.667Z,36.17
2022-09-16T16:24:46.834Z,36.90
2022-09-16T16:27:16.152Z,33.50
2022-09-16T16:29:45.247Z,57.22
2022-09-16T16:32:17.634Z,55.88
2022-09-16T16:34:50.160Z,65.80
2022-09-16T16:40:10.639Z,95.25
2022-09-16T16:42:40.405Z,71.75
2022-09-16T16:45:10.952Z,80.18
2022-09-16T16:47:41.467Z,79.35
2022-09-16T16:50:11.564Z,57.80
2022-09-16T16:52:40.767Z,80.07
2022-09-16T16:55:10.996Z,74.28
2022-09-16T16:57:40.166Z,47.47
2022-09-16T17:00:11.831Z,105.30
2022-09-16T17:02:42.621Z,71.53
2022-09-16T17:05:12.425Z,67.47
2022-09-16T17:07:41.696Z,70.50
2022-09-16T17:10:11.650Z,84.00
2022-09-16T17:12:40.795Z,71.10
2022-09-16T17:15:10.987Z,85.03
2022-09-16T17:17:41.661Z,100.50
2022-09-16T17:20:11.337Z,75.25
2022-09-16T17:22:41.423Z,65.22
2022-09-16T17:25:11.020Z,83.35
2022-09-16T17:27:40.246Z,89.15
2022-09-16T17:30:10.389Z,96.60
2022-09-16T17:32:39.568Z,107.18
2022-09-16T17:35:11.070Z,133.90
2022-09-16T17:37:40.309Z,89.13
2022-09-16T17:40:10.286Z,94.80
2022-09-16T17:42:39.450Z,98.00
2022-09-16T17:45:09.783Z,110.97
2022-09-16T17:47:38.994Z,99.75
2022-09-16T17:50:10.700Z,114.28
2022-09-16T17:52:39.970Z,100.10
2022-09-16T17:55:09.876Z,125.20
2022-09-16T17:57:39.197Z,122.45
2022-09-16T18:00:10.398Z,112.57
2022-09-16T18:02:43.079Z,94.13
2022-09-16T18:05:14.510Z,129.90
2022-09-16T18:07:47.264Z,94.10
2022-09-16T18:10:16.652Z,116.85
2022-09-16T18:12:45.857Z,100.63
2022-09-16T18:15:15.154Z,119.38
2022-09-16T18:17:44.394Z,126.00
2022-09-16T18:20:14.959Z,87.18
2022-09-16T18:22:44.167Z,105.07
2022-09-16T18:25:13.340Z,109.40
2022-09-16T18:27:44.319Z,131.13
2022-09-16T18:30:16.771Z,58.67
2022-09-16T18:32:45.930Z,104.47
2022-09-16T18:35:16.724Z,92.88
2022-09-16T18:37:46.586Z,54.78
2022-09-16T18:40:16.017Z,57.03
2022-09-16T18:42:45.374Z,52.50
2022-09-16T18:45:14.608Z,56.15
2022-09-16T18:47:43.794Z,59.22
2022-09-16T18:50:12.918Z,72.80
2022-09-16T18:52:43.620Z,70.18
2022-09-16T18:55:12.769Z,55.00
2022-09-16T18:57:42.094Z,46.25
2022-09-16T19:00:13.270Z,51.40
2022-09-16T19:02:43.475Z,52.83
2022-09-16T19:05:12.851Z,47.65
2022-09-16T19:07:43.372Z,47.03
2022-09-16T19:10:12.538Z,44.50
2022-09-16T19:12:41.814Z,39.10
2022-09-16T19:15:12.205Z,36.15
2022-09-16T19:17:41.402Z,34.05
2022-09-16T19:20:11.530Z,39.70
2022-09-16T19:22:42.262Z,36.45
2022-09-16T19:25:11.511Z,33.50
2022-09-16T19:27:40.699Z,29.75
2022-09-16T19:30:11.255Z,33.13
2022-09-16T19:32:40.916Z,31.77
2022-09-16T19:35:10.335Z,36.75
2022-09-16T19:37:39.824Z,35.13
2022-09-16T19:40:11.904Z,33.55
2022-09-16T19:42:41.088Z,36.40
2022-09-16T19:45:11.438Z,33.88
2022-09-16T19:47:40.965Z,35.05
2022-09-16T19:50:11.827Z,33.35
2022-09-16T19:52:41.583Z,38.38
2022-09-16T19:55:12.216Z,35.95
2022-09-16T19:57:41.368Z,37.53
2022-09-16T20:00:15.627Z,34.38
2022-09-16T20:02:46.182Z,41.30
2022-09-16T20:05:15.583Z,44.20
2022-09-16T20:07:44.793Z,46.22
2022-09-16T20:10:16.203Z,46.85
2022-09-16T20:12:45.373Z,45.55
2022-09-16T20:15:14.862Z,48.97
2022-09-16T20:17:44.013Z,48.13
2022-09-16T20:20:13.239Z,62.42
2022-09-16T20:22:42.524Z,62.40
2022-09-16T20:25:22.895Z,64.35
2022-09-16T20:27:54.339Z,68.95
2022-09-16T20:30:23.553Z,50.22
2022-09-16T20:32:53.814Z,65.50
2022-09-16T20:35:23.248Z,56.58
2022-09-16T20:37:52.506Z,55.90
2022-09-16T20:40:21.722Z,52.95
2022-09-16T20:42:50.998Z,48.97
2022-09-16T20:45:21.477Z,48.05
2022-09-16T20:47:53.433Z,69.65
2022-09-16T20:50:22.857Z,55.20
2022-09-16T20:52:51.965Z,52.85
2022-09-16T20:55:21.303Z,56.28
2022-09-16T20:57:51.096Z,64.40
2022-09-16T21:00:22.549Z,58.53
2022-09-16T21:02:54.640Z,61.92
2022-09-16T21:05:23.860Z,54.47
2022-09-16T21:07:53.088Z,47.42
2022-09-16T21:10:23.198Z,51.58
2022-09-16T21:12:54.048Z,55.72
2022-09-16T21:15:24.553Z,58.55
2022-09-16T21:17:55.600Z,55.10
2022-09-16T21:20:24.759Z,57.55
2022-09-16T21:22:53.906Z,51.47
2022-09-16T21:25:24.853Z,57.35
2022-09-16T21:27:55.221Z,53.00
2022-09-16T21:30:26.273Z,52.88
2022-09-16T21:32:57.276Z,45.65
2022-09-16T21:35:27.476Z,47.83
2022-09-16T21:37:57.579Z,52.17
2022-09-16T21:40:27.304Z,50.63
2022-09-16T21:42:56.710Z,55.05
2022-09-16T21:45:27.822Z,50.67
2022-09-16T21:47:57.699Z,50.22
2022-09-16T21:50:26.893Z,50.00
2022-09-16T21:52:56.228Z,57.80
2022-09-16T21:55:25.381Z,60.83
2022-09-16T21:57:54.525Z,47.92
2022-09-16T22:00:23.696Z,50.30
2022-09-16T22:02:56.403Z,49.15
2022-09-16T22:07:54.504Z,34.25
2022-09-16T22:10:23.870Z,41.65
2022-09-16T22:12:53.115Z,38.25
2022-09-16T22:15:22.799Z,43.40
2022-09-16T22:17:54.251Z,40.95
2022-09-16T22:20:24.882Z,45.72
2022-09-16T22:22:56.348Z,46.38
2022-09-16T22:25:25.694Z,37.25
2022-09-16T22:27:54.792Z,43.08
2022-09-16T22:30:24.024Z,43.80
2022-09-16T22:32:54.686Z,43.40
2022-09-16T22:35:23.898Z,35.97
2022-09-16T22:37:53.177Z,33.25
2022-09-16T22:40:22.526Z,19.55
2022-09-16T22:42:51.855Z,26.90
2022-09-16T22:45:21.067Z,21.20
2022-09-16T22:47:50.396Z,18.60
2022-09-16T22:50:20.905Z,16.55
2022-09-16T22:52:50.007Z,20.55
2022-09-16T22:55:19.122Z,17.85
2022-09-16T22:57:48.230Z,16.70
2022-09-16T23:00:17.648Z,21.67
2022-09-16T23:02:46.838Z,12.88
2022-09-16T23:05:16.502Z,16.88
2022-09-16T23:07:47.732Z,17.23
2022-09-16T23:10:17.064Z,18.17
2022-09-16T23:12:46.248Z,18.73
2022-09-16T23:15:16.289Z,21.67
2022-09-16T23:17:45.456Z,22.33
2022-09-16T23:20:14.652Z,22.75
2022-09-16T23:22:43.734Z,23.35
2022-09-16T23:25:14.243Z,22.67
2022-09-16T23:27:43.345Z,24.92
2022-09-16T23:30:14.004Z,19.88
2022-09-16T23:32:43.140Z,21.80
2022-09-16T23:35:12.350Z,20.48
2022-09-16T23:37:42.410Z,22.35
2022-09-16T23:40:13.464Z,21.13
2022-09-16T23:42:42.872Z,22.55
2022-09-16T23:45:12.350Z,21.90
2022-09-16T23:47:41.641Z,24.75
2022-09-16T23:50:11.998Z,24.73
2022-09-16T23:52:41.224Z,22.75
2022-09-16T23:55:11.015Z,24.90
2022-09-16T23:57:42.523Z,22.92
